createdAt,value
2018-12-06T00:01:13.293Z,9.30
2018-12-06T00:03:40.577Z,9.50
2018-12-06T00:06:07.794Z,9.40
2018-12-06T00:08:35.036Z,9.30
2018-12-06T00:11:02.371Z,9.30
2018-12-06T00:13:29.633Z,9.40
2018-12-06T00:15:57.665Z,9.40
2018-12-06T00:18:24.999Z,9.40
2018-12-06T00:20:52.353Z,9.30
2018-12-06T00:23:19.591Z,9.30
2018-12-06T00:25:46.821Z,9.30
2018-12-06T00:28:14.062Z,9.30
2018-12-06T00:30:41.891Z,9.20
2018-12-06T00:33:09.404Z,9.20
2018-12-06T00:35:36.756Z,9.20
2018-12-06T00:38:04.369Z,9.30
2018-12-06T00:40:31.841Z,9.30
2018-12-06T00:42:59.177Z,9.30
2018-12-06T00:45:27.545Z,9.40
2018-12-06T00:47:56.035Z,9.50
2018-12-06T00:50:26.214Z,9.60
2018-12-06T00:52:55.243Z,9.50
2018-12-06T00:55:23.801Z,9.50
2018-12-06T00:57:52.134Z,9.60
2018-12-06T01:00:20.576Z,9.40
2018-12-06T01:02:49.864Z,9.40
2018-12-06T01:05:18.213Z,9.50
2018-12-06T01:07:49.912Z,9.70
2018-12-06T01:10:18.351Z,9.60
2018-12-06T01:12:46.709Z,9.60
2018-12-06T01:15:15.253Z,9.70
2018-12-06T01:17:43.713Z,9.60
2018-12-06T01:20:14.933Z,9.60
2018-12-06T01:22:43.284Z,9.80
2018-12-06T01:25:12.101Z,9.70
2018-12-06T01:27:40.506Z,9.70
2018-12-06T01:30:09.136Z,9.80
2018-12-06T01:32:38.777Z,9.80
2018-12-06T01:35:07.311Z,9.70
2018-12-06T01:37:35.662Z,9.80
2018-12-06T01:40:04.239Z,9.80
2018-12-06T01:42:32.489Z,10.00
2018-12-06T01:45:00.944Z,9.90
2018-12-06T01:47:29.366Z,9.90
2018-12-06T01:49:57.839Z,9.90
2018-12-06T01:52:26.089Z,9.80
2018-12-06T01:54:54.479Z,9.80
2018-12-06T01:57:22.984Z,10.00
2018-12-06T01:59:51.336Z,10.00
2018-12-06T02:02:19.625Z,10.00
2018-12-06T02:04:48.069Z,10.10
2018-12-06T02:07:18.599Z,9.90
2018-12-06T02:09:46.828Z,9.80
2018-12-06T02:12:15.982Z,9.70
2018-12-06T02:14:44.424Z,9.70
2018-12-06T02:17:12.814Z,9.70
2018-12-06T02:19:41.316Z,9.90
2018-12-06T02:22:09.677Z,9.80
2018-12-06T02:24:38.140Z,9.70
2018-12-06T02:27:06.548Z,9.60
2018-12-06T02:29:42.635Z,9.70
2018-12-06T02:32:11.020Z,9.60
2018-12-06T02:34:39.355Z,9.80
2018-12-06T02:37:07.774Z,9.80
2018-12-06T02:39:36.196Z,9.70
2018-12-06T02:42:07.150Z,9.80
2018-12-06T02:44:35.647Z,9.80
2018-12-06T02:47:04.300Z,9.70
2018-12-06T02:49:32.713Z,9.80
2018-12-06T02:52:01.168Z,9.90
2018-12-06T02:54:29.497Z,9.80
2018-12-06T02:56:57.959Z,9.80
2018-12-06T02:59:26.492Z,9.90
2018-12-06T03:01:55.129Z,9.90
2018-12-06T03:04:25.979Z,10.00
2018-12-06T03:06:54.312Z,10.10
2018-12-06T03:09:22.664Z,9.90
2018-12-06T03:11:51.081Z,10.00
2018-12-06T03:14:19.505Z,9.90
2018-12-06T03:16:47.771Z,10.10
2018-12-06T03:19:18.564Z,10.10
2018-12-06T03:21:47.020Z,10.00
2018-12-06T03:24:15.603Z,10.00
2018-12-06T03:26:44.089Z,10.10
2018-12-06T03:29:12.365Z,10.00
2018-12-06T03:31:40.956Z,10.10
2018-12-06T03:34:10.840Z,10.20
2018-12-06T03:36:40.548Z,10.20
2018-12-06T03:39:08.833Z,10.20
2018-12-06T03:41:37.244Z,10.30
2018-12-06T03:44:05.542Z,10.30
2018-12-06T03:46:33.792Z,10.30
2018-12-06T03:49:02.293Z,10.30
2018-12-06T03:51:34.540Z,10.10
2018-12-06T03:54:01.712Z,10.10
2018-12-06T03:56:30.124Z,10.10
2018-12-06T03:58:58.337Z,10.00
2018-12-06T04:01:26.582Z,10.20
2018-12-06T04:03:55.105Z,10.20
2018-12-06T04:06:23.764Z,10.00
2018-12-06T04:08:51.935Z,9.90
2018-12-06T04:11:20.450Z,10.00
2018-12-06T04:13:48.797Z,10.10
2018-12-06T04:16:17.140Z,9.80
2018-12-06T04:18:45.684Z,9.80
2018-12-06T04:21:14.230Z,9.60
2018-12-06T04:23:42.590Z,9.50
2018-12-06T04:26:11.040Z,9.60
2018-12-06T04:28:39.488Z,9.60
2018-12-06T04:31:07.748Z,9.70
2018-12-06T04:33:41.673Z,9.50
2018-12-06T04:36:10.031Z,9.60
2018-12-06T04:38:38.469Z,9.50
2018-12-06T04:41:06.801Z,9.50
2018-12-06T04:43:35.171Z,9.60
2018-12-06T04:46:03.781Z,9.70
2018-12-06T04:48:32.261Z,9.60
2018-12-06T04:51:00.514Z,9.50
2018-12-06T04:53:28.852Z,9.50
2018-12-06T04:55:57.463Z,9.50
2018-12-06T04:58:25.834Z,9.60
2018-12-06T05:00:59.248Z,9.60
2018-12-06T05:03:26.994Z,9.60
2018-12-06T05:05:55.732Z,9.70
2018-12-06T05:08:28.284Z,9.70
2018-12-06T05:10:57.712Z,9.70
2018-12-06T05:13:26.202Z,9.80
2018-12-06T05:15:54.585Z,9.80
2018-12-06T05:18:23.164Z,10.00
2018-12-06T05:20:51.517Z,9.90
2018-12-06T05:23:19.884Z,10.10
2018-12-06T05:25:48.228Z,10.20
2018-12-06T05:28:16.798Z,10.10
2018-12-06T05:30:45.169Z,10.20
2018-12-06T05:33:13.514Z,10.20
2018-12-06T05:35:42.196Z,10.10
2018-12-06T05:38:14.396Z,10.20
2018-12-06T05:40:42.684Z,10.10
2018-12-06T05:43:11.136Z,10.30
2018-12-06T05:45:39.495Z,10.20
2018-12-06T05:48:07.873Z,10.10
2018-12-06T05:50:36.356Z,10.10
2018-12-06T05:53:04.896Z,10.00
2018-12-06T05:55:33.417Z,9.90
2018-12-06T05:58:01.754Z,9.90
2018-12-06T06:00:30.238Z,9.90
2018-12-06T06:02:58.609Z,9.90
2018-12-06T06:05:27.337Z,9.90
2018-12-06T06:07:55.765Z,9.80
2018-12-06T06:10:25.692Z,9.60
2018-12-06T06:12:54.353Z,9.60
2018-12-06T06:15:22.708Z,9.70
2018-12-06T06:17:51.388Z,9.70
2018-12-06T06:20:19.752Z,9.60
2018-12-06T06:22:48.036Z,9.60
2018-12-06T06:25:16.329Z,9.60
2018-12-06T06:27:44.645Z,9.60
2018-12-06T06:30:13.121Z,9.60
2018-12-06T06:32:43.346Z,9.60
2018-12-06T06:35:11.710Z,9.50
2018-12-06T06:37:40.067Z,9.50
2018-12-06T06:40:08.758Z,9.40
2018-12-06T06:42:37.325Z,9.50
2018-12-06T06:45:05.964Z,9.60
2018-12-06T06:47:34.522Z,9.60
2018-12-06T06:50:03.321Z,9.50
2018-12-06T06:52:34.181Z,9.60
2018-12-06T06:55:03.072Z,9.50
2018-12-06T06:57:31.524Z,9.50
2018-12-06T06:59:59.866Z,9.60
2018-12-06T07:02:28.209Z,9.70
2018-12-06T07:04:56.765Z,9.80
2018-12-06T07:07:25.215Z,9.80
2018-12-06T07:09:53.505Z,9.90
2018-12-06T07:12:22.152Z,10.00
2018-12-06T07:14:50.521Z,10.00
2018-12-06T07:17:18.965Z,9.90
2018-12-06T07:19:47.318Z,9.90
2018-12-06T07:22:16.500Z,10.00
2018-12-06T07:24:44.961Z,9.90
2018-12-06T07:27:13.312Z,10.00
2018-12-06T07:29:43.419Z,10.00
2018-12-06T07:32:11.781Z,10.00
2018-12-06T07:34:40.154Z,10.10
2018-12-06T07:37:08.623Z,10.10
2018-12-06T07:39:37.468Z,10.30
2018-12-06T07:42:05.954Z,10.30
2018-12-06T07:44:34.661Z,10.30
2018-12-06T07:47:03.530Z,10.40
2018-12-06T07:49:32.157Z,10.20
2018-12-06T07:52:00.624Z,10.20
2018-12-06T07:54:29.857Z,10.30
2018-12-06T07:56:58.350Z,10.30
2018-12-06T07:59:26.713Z,10.30
2018-12-06T08:01:58.468Z,10.40
2018-12-06T08:04:26.838Z,10.50
2018-12-06T08:06:56.551Z,10.60
2018-12-06T08:09:25.146Z,10.60
2018-12-06T08:11:53.493Z,10.70
2018-12-06T08:14:21.927Z,10.70
2018-12-06T08:16:50.338Z,10.70
2018-12-06T08:19:18.833Z,10.90
2018-12-06T08:21:47.205Z,10.80
2018-12-06T08:24:15.854Z,10.80
2018-12-06T08:26:44.425Z,10.90
2018-12-06T08:29:12.680Z,10.80
2018-12-06T08:31:41.052Z,10.70
2018-12-06T08:34:09.340Z,10.90
2018-12-06T08:36:37.684Z,11.00
2018-12-06T08:39:06.501Z,11.20
2018-12-06T08:41:34.856Z,11.20
2018-12-06T08:44:06.222Z,11.40
2018-12-06T08:46:34.573Z,11.10
2018-12-06T08:49:03.327Z,11.10
2018-12-06T08:51:31.669Z,11.10
2018-12-06T08:54:00.033Z,11.10
2018-12-06T08:56:28.733Z,11.30
2018-12-06T08:58:57.097Z,11.20
2018-12-06T09:01:25.511Z,11.40
2018-12-06T09:03:53.906Z,11.40
2018-12-06T09:06:22.417Z,11.20
2018-12-06T09:08:50.817Z,11.30
2018-12-06T09:11:19.329Z,11.40
2018-12-06T09:13:47.691Z,11.40
2018-12-06T09:16:16.371Z,11.50
2018-12-06T09:18:49.325Z,11.60
2018-12-06T09:21:17.672Z,11.60
2018-12-06T09:23:46.013Z,11.60
2018-12-06T09:26:14.339Z,11.70
2018-12-06T09:28:42.664Z,11.60
2018-12-06T09:31:15.359Z,11.70
2018-12-06T09:33:55.318Z,11.60
2018-12-06T09:36:23.612Z,11.50
2018-12-06T09:38:51.978Z,11.60
2018-12-06T09:41:20.222Z,11.60
2018-12-06T09:43:48.718Z,11.70
2018-12-06T09:46:17.381Z,11.70
2018-12-06T09:48:45.829Z,11.80
2018-12-06T09:51:17.490Z,11.90
2018-12-06T09:53:45.848Z,12.10
2018-12-06T09:56:14.423Z,12.10
2018-12-06T09:58:42.731Z,12.20
2018-12-06T10:01:11.262Z,12.20
2018-12-06T10:03:45.771Z,12.30
2018-12-06T10:06:14.155Z,12.10
2018-12-06T10:08:42.496Z,12.10
2018-12-06T10:11:10.934Z,12.20
2018-12-06T10:13:39.282Z,12.30
2018-12-06T10:16:07.664Z,12.30
2018-12-06T10:18:37.552Z,12.40
2018-12-06T10:21:05.912Z,12.30
2018-12-06T10:23:34.277Z,12.40
2018-12-06T10:26:02.629Z,12.40
2018-12-06T10:28:30.970Z,12.50
2018-12-06T10:31:03.504Z,12.50
2018-12-06T10:33:31.846Z,12.40
2018-12-06T10:36:00.213Z,12.40
2018-12-06T10:38:29.179Z,12.50
2018-12-06T10:40:57.642Z,12.50
2018-12-06T10:43:27.902Z,12.40
2018-12-06T10:45:56.664Z,12.50
2018-12-06T10:48:25.032Z,12.50
2018-12-06T10:52:01.182Z,12.60
2018-12-06T10:54:28.404Z,12.50
2018-12-06T10:56:55.892Z,12.60
2018-12-06T10:59:27.304Z,12.50
2018-12-06T11:02:00.381Z,12.60
2018-12-06T11:04:33.425Z,12.60
2018-12-06T11:07:01.143Z,12.50
2018-12-06T11:09:32.885Z,12.40
2018-12-06T11:12:00.297Z,12.40
2018-12-06T11:14:27.650Z,12.50
2018-12-06T11:16:54.898Z,12.50
2018-12-06T11:19:22.158Z,12.50
2018-12-06T11:21:49.641Z,12.50
2018-12-06T11:24:19.041Z,12.60
2018-12-06T11:26:46.269Z,12.60
2018-12-06T11:29:13.630Z,12.60
2018-12-06T11:31:40.852Z,12.70
2018-12-06T11:34:08.115Z,12.70
2018-12-06T11:36:35.372Z,12.80
2018-12-06T11:39:07.675Z,12.80
2018-12-06T11:41:34.933Z,12.90
2018-12-06T11:44:02.466Z,13.00
2018-12-06T11:46:29.721Z,13.10
2018-12-06T11:48:57.214Z,13.10
2018-12-06T11:51:24.450Z,13.10
2018-12-06T11:53:57.292Z,13.10
2018-12-06T11:56:24.528Z,13.10
2018-12-06T11:58:51.749Z,13.00
2018-12-06T12:01:19.262Z,13.10
2018-12-06T12:03:46.513Z,13.00
2018-12-06T12:06:13.769Z,12.90
2018-12-06T12:08:42.283Z,12.90
2018-12-06T12:11:09.775Z,12.90
2018-12-06T12:13:37.053Z,12.90
2018-12-06T12:16:04.592Z,13.00
2018-12-06T12:18:31.817Z,12.90
2018-12-06T12:20:59.097Z,12.80
2018-12-06T12:23:28.109Z,12.70
2018-12-06T12:25:56.501Z,12.60
2018-12-06T12:28:24.968Z,12.70
2018-12-06T12:30:53.400Z,12.70
2018-12-06T12:33:21.890Z,12.70
2018-12-06T12:35:52.353Z,12.70
2018-12-06T12:38:20.812Z,12.60
2018-12-06T12:40:49.321Z,12.60
2018-12-06T12:43:17.856Z,12.60
2018-12-06T12:45:46.121Z,12.40
2018-12-06T12:48:20.718Z,12.50
2018-12-06T12:50:49.190Z,12.40
2018-12-06T12:53:17.537Z,12.40
2018-12-06T12:55:45.877Z,12.30
2018-12-06T12:58:14.261Z,12.20
2018-12-06T13:00:43.841Z,12.20
2018-12-06T13:03:12.342Z,12.30
2018-12-06T13:05:40.761Z,12.30
2018-12-06T13:08:09.109Z,12.40
2018-12-06T13:10:37.559Z,12.30
2018-12-06T13:13:10.651Z,12.40
2018-12-06T13:15:39.154Z,12.50
2018-12-06T13:18:08.298Z,12.60
2018-12-06T13:20:36.873Z,12.60
2018-12-06T13:23:05.612Z,12.50
2018-12-06T13:25:39.113Z,12.50
2018-12-06T13:28:07.598Z,12.60
2018-12-06T13:30:36.044Z,12.80
2018-12-06T13:33:04.549Z,12.80
2018-12-06T13:35:33.024Z,12.90
2018-12-06T13:38:06.064Z,13.00
2018-12-06T13:40:34.440Z,12.90
2018-12-06T13:43:03.042Z,12.90
2018-12-06T13:45:31.496Z,12.90
2018-12-06T13:47:59.851Z,12.90
2018-12-06T13:50:30.353Z,12.90
2018-12-06T13:52:58.726Z,13.00
2018-12-06T13:55:27.202Z,13.00
2018-12-06T13:57:55.615Z,13.10
2018-12-06T14:00:24.121Z,13.10
2018-12-06T14:02:56.986Z,13.20
2018-12-06T14:05:25.360Z,13.10
2018-12-06T14:07:53.864Z,12.90
2018-12-06T14:10:22.357Z,13.00
2018-12-06T14:12:50.863Z,12.90
2018-12-06T14:15:24.188Z,12.80
2018-12-06T14:17:52.681Z,12.90
2018-12-06T14:20:21.046Z,12.90
2018-12-06T14:22:49.396Z,13.00
2018-12-06T14:25:17.735Z,12.90
2018-12-06T14:27:50.112Z,12.90
2018-12-06T14:30:18.582Z,12.90
2018-12-06T14:32:47.070Z,12.90
2018-12-06T14:35:15.571Z,12.90
2018-12-06T14:37:43.921Z,12.90
2018-12-06T14:40:15.787Z,12.90
2018-12-06T14:42:44.117Z,12.80
2018-12-06T14:45:12.574Z,12.90
2018-12-06T14:47:40.809Z,12.90
2018-12-06T14:50:09.253Z,13.00
2018-12-06T14:52:39.814Z,12.90
2018-12-06T14:55:08.290Z,12.80
2018-12-06T14:57:36.625Z,12.90
2018-12-06T15:00:07.520Z,12.80
2018-12-06T15:02:35.889Z,12.90
2018-12-06T15:05:07.188Z,13.00
2018-12-06T15:07:35.530Z,13.00
2018-12-06T15:10:05.073Z,13.00
2018-12-06T15:12:33.413Z,12.90
2018-12-06T15:15:07.002Z,12.90
2018-12-06T15:17:35.289Z,12.90
2018-12-06T15:20:03.936Z,13.00
2018-12-06T15:22:32.319Z,12.90
2018-12-06T15:25:00.981Z,13.00
2018-12-06T15:27:32.444Z,12.80
2018-12-06T15:30:00.794Z,12.90
2018-12-06T15:32:29.133Z,13.00
2018-12-06T15:34:57.549Z,12.90
2018-12-06T15:37:25.811Z,12.90
2018-12-06T15:40:17.172Z,12.90
2018-12-06T15:42:45.434Z,12.90
2018-12-06T15:45:14.485Z,12.90
2018-12-06T15:47:42.865Z,12.90
2018-12-06T15:50:11.252Z,13.00
2018-12-06T15:52:39.577Z,12.90
2018-12-06T15:55:08.009Z,12.90
2018-12-06T15:57:38.338Z,12.90
2018-12-06T16:00:10.288Z,12.90
2018-12-06T16:02:38.919Z,13.00
2018-12-06T16:05:07.617Z,13.00
2018-12-06T16:07:36.015Z,13.00
2018-12-06T16:10:08.510Z,13.00
2018-12-06T16:12:36.872Z,13.00
2018-12-06T16:15:06.865Z,13.00
2018-12-06T16:17:35.305Z,13.00
2018-12-06T16:20:08.563Z,13.20
2018-12-06T16:22:36.905Z,13.00
2018-12-06T16:25:06.188Z,12.90
2018-12-06T16:27:34.568Z,12.90
2018-12-06T16:30:03.704Z,13.00
2018-12-06T16:32:36.457Z,12.90
2018-12-06T16:35:05.365Z,12.80
2018-12-06T16:37:33.780Z,12.80
2018-12-06T16:40:02.421Z,12.70
2018-12-06T16:42:32.527Z,12.70
2018-12-06T16:45:05.025Z,12.80
2018-12-06T16:47:33.344Z,12.80
2018-12-06T16:50:01.864Z,12.80
2018-12-06T16:52:30.296Z,12.70
2018-12-06T16:55:03.696Z,12.70
2018-12-06T16:57:32.055Z,12.80
2018-12-06T17:00:00.413Z,12.80
2018-12-06T17:02:28.834Z,12.90
2018-12-06T17:04:57.409Z,12.80
2018-12-06T17:07:25.921Z,12.70
2018-12-06T17:09:54.188Z,12.80
2018-12-06T17:12:22.598Z,12.80
2018-12-06T17:14:51.280Z,12.90
2018-12-06T17:17:19.847Z,12.80
2018-12-06T17:19:48.347Z,12.60
2018-12-06T17:22:16.734Z,12.70
2018-12-06T17:24:45.076Z,12.70
2018-12-06T17:27:13.495Z,12.70
2018-12-06T17:29:41.941Z,12.80
2018-12-06T17:32:10.334Z,12.80
2018-12-06T17:34:39.039Z,12.70
2018-12-06T17:37:07.496Z,12.70
2018-12-06T17:39:35.877Z,12.70
2018-12-06T17:42:04.405Z,12.70
2018-12-06T17:44:33.140Z,12.80
2018-12-06T17:47:01.525Z,12.90
2018-12-06T17:49:30.016Z,12.80
2018-12-06T17:51:58.492Z,12.90
2018-12-06T17:54:26.959Z,12.90
2018-12-06T17:56:55.601Z,13.00
2018-12-06T17:59:23.937Z,12.90
2018-12-06T18:01:52.412Z,13.00
2018-12-06T18:04:20.792Z,13.00
2018-12-06T18:06:49.471Z,13.00
2018-12-06T18:09:17.948Z,13.10
2018-12-06T18:11:46.237Z,13.00
2018-12-06T18:14:14.632Z,13.10
2018-12-06T18:16:42.896Z,13.00
2018-12-06T18:19:11.552Z,12.90
2018-12-06T18:21:39.981Z,13.00
2018-12-06T18:24:08.429Z,13.00
2018-12-06T18:26:36.841Z,12.90
2018-12-06T18:29:05.478Z,13.00
2018-12-06T18:31:33.847Z,13.10
2018-12-06T18:34:02.700Z,13.10
2018-12-06T18:36:31.039Z,13.10
2018-12-06T18:38:59.409Z,13.10
2018-12-06T18:41:29.589Z,13.20
2018-12-06T18:43:56.938Z,13.10
2018-12-06T18:46:25.473Z,13.10
2018-12-06T18:48:53.847Z,13.10
2018-12-06T18:51:22.224Z,13.20
2018-12-06T18:53:50.807Z,13.20
2018-12-06T18:56:19.608Z,13.30
2018-12-06T18:58:48.067Z,13.20
2018-12-06T19:01:16.474Z,13.20
2018-12-06T19:03:44.980Z,13.30
2018-12-06T19:06:13.352Z,13.20
2018-12-06T19:08:41.700Z,13.20
2018-12-06T19:11:10.064Z,13.20
2018-12-06T19:13:38.448Z,13.10
2018-12-06T19:16:07.065Z,13.10
2018-12-06T19:18:35.609Z,13.00
2018-12-06T19:21:07.757Z,13.10
2018-12-06T19:23:36.770Z,13.10
2018-12-06T19:26:05.048Z,13.10
2018-12-06T19:28:33.384Z,13.10
2018-12-06T19:31:01.849Z,13.10
2018-12-06T19:33:30.295Z,13.00
2018-12-06T19:35:58.928Z,12.90
2018-12-06T19:38:27.503Z,12.80
2018-12-06T19:40:56.308Z,12.80
2018-12-06T19:43:24.610Z,12.60
2018-12-06T19:45:52.928Z,12.60
2018-12-06T19:48:21.406Z,12.60
2018-12-06T19:50:49.917Z,12.60
2018-12-06T19:53:18.265Z,12.60
2018-12-06T19:55:46.589Z,12.60
2018-12-06T19:58:16.123Z,12.60
2018-12-06T20:00:44.385Z,12.50
2018-12-06T20:03:13.017Z,12.50
2018-12-06T20:05:42.445Z,12.60
2018-12-06T20:08:10.790Z,12.60
2018-12-06T20:10:39.150Z,12.60
2018-12-06T20:13:07.372Z,12.50
2018-12-06T20:15:35.737Z,12.50
2018-12-06T20:18:04.589Z,12.50
2018-12-06T20:20:33.055Z,12.50
2018-12-06T20:23:01.545Z,12.50
2018-12-06T20:25:29.973Z,12.60
2018-12-06T20:28:00.924Z,12.60
2018-12-06T20:30:29.790Z,12.60
2018-12-06T20:32:58.092Z,12.70
2018-12-06T20:35:26.425Z,12.70
2018-12-06T20:37:55.412Z,12.70
2018-12-06T20:40:23.772Z,12.80
2018-12-06T20:42:52.228Z,12.80
2018-12-06T20:45:20.753Z,12.80
2018-12-06T20:47:53.226Z,12.80
2018-12-06T20:50:20.490Z,13.00
2018-12-06T20:52:48.897Z,13.00
2018-12-06T20:55:18.472Z,13.00
2018-12-06T20:57:46.829Z,13.00
2018-12-06T21:00:15.562Z,13.20
2018-12-06T21:02:43.974Z,13.10
2018-12-06T21:05:12.468Z,13.10
2018-12-06T21:07:40.751Z,13.10
2018-12-06T21:10:09.212Z,13.10
2018-12-06T21:12:37.864Z,13.10
2018-12-06T21:15:07.018Z,13.20
2018-12-06T21:17:35.348Z,13.20
2018-12-06T21:20:04.693Z,13.20
2018-12-06T21:22:33.024Z,13.10
2018-12-06T21:25:01.613Z,13.10
2018-12-06T21:27:30.070Z,13.20
2018-12-06T21:29:58.620Z,13.10
2018-12-06T21:32:26.999Z,13.40
2018-12-06T21:34:55.215Z,13.20
2018-12-06T21:37:23.678Z,13.20
2018-12-06T21:39:51.923Z,13.30
2018-12-06T21:42:20.541Z,13.40
2018-12-06T21:44:49.120Z,13.40
2018-12-06T21:47:23.212Z,13.40
2018-12-06T21:49:51.748Z,13.40
2018-12-06T21:52:20.130Z,13.40
2018-12-06T21:54:48.795Z,13.40
2018-12-06T21:57:17.312Z,13.40
2018-12-06T21:59:45.931Z,13.40
2018-12-06T22:02:21.912Z,13.40
2018-12-06T22:04:51.724Z,13.30
2018-12-06T22:07:22.722Z,13.30
2018-12-06T22:09:51.282Z,13.40
2018-12-06T22:12:19.514Z,13.40
2018-12-06T22:14:47.912Z,13.40
2018-12-06T22:17:16.465Z,13.40
2018-12-06T22:19:45.133Z,13.50
2018-12-06T22:22:13.503Z,13.50
2018-12-06T22:24:41.757Z,13.50
2018-12-06T22:27:10.097Z,13.50
2018-12-06T22:29:38.457Z,13.50
2018-12-06T22:32:08.300Z,13.40
2018-12-06T22:34:36.677Z,13.60
2018-12-06T22:37:05.158Z,13.40
2018-12-06T22:39:33.522Z,13.40
2018-12-06T22:42:01.957Z,13.40
2018-12-06T22:44:30.581Z,13.50
2018-12-06T22:46:59.001Z,13.60
2018-12-06T22:49:27.362Z,13.50
2018-12-06T22:51:55.844Z,13.50
2018-12-06T22:54:24.219Z,13.50
2018-12-06T22:56:52.555Z,13.50
2018-12-06T22:59:21.040Z,13.50
2018-12-06T23:01:49.953Z,13.40
2018-12-06T23:04:18.535Z,13.40
2018-12-06T23:06:46.923Z,13.30
2018-12-06T23:09:15.360Z,13.20
2018-12-06T23:11:44.452Z,13.30
2018-12-06T23:14:12.900Z,13.30
2018-12-06T23:16:41.563Z,13.30
2018-12-06T23:19:10.093Z,13.30
2018-12-06T23:21:38.411Z,13.30
2018-12-06T23:24:06.667Z,13.30
2018-12-06T23:26:35.009Z,13.40
2018-12-06T23:29:03.559Z,13.40
2018-12-06T23:31:31.902Z,13.30
2018-12-06T23:34:00.375Z,13.20
2018-12-06T23:36:28.704Z,13.20
2018-12-06T23:38:57.061Z,13.00
2018-12-06T23:41:26.169Z,12.90
2018-12-06T23:43:54.568Z,12.90
2018-12-06T23:46:22.796Z,12.80
2018-12-06T23:48:51.318Z,12.80
2018-12-06T23:51:32.909Z,12.70
2018-12-06T23:54:01.361Z,12.60
2018-12-06T23:56:30.216Z,12.50
2018-12-06T23:58:58.965Z,12.50
